Time;durP1;ratioP1;P1;durP2;ratioP2;P2;SDS_P1;SDS_P2;PMS_P1;PMS_P2;Temp;Humidity;BMP_temperature;BMP_pressure;BME280_temperature;BME280_humidity;BME280_pressure;Samples;Min_cycle;Max_cycle;Signal;HPM_P1;HPM_P2
2023/10/28 00:03:05;;;;;;;6.00;2.33;;;;;;;9.72;67.03;98055.06;10505354;28;20455;-59
2023/10/28 00:08:07;;;;;;;2.95;1.90;;;;;;;9.67;67.35;98059.81;10503465;28;20067;-58
2023/10/28 00:13:11;;;;;;;3.50;1.65;;;;;;;9.71;67.49;98055.19;10502583;28;20542;-59
2023/10/28 00:18:14;;;;;;;3.55;1.27;;;;;;;9.73;67.44;98061.09;10503007;28;20060;-59
2023/10/28 00:23:16;;;;;;;2.47;1.52;;;;;;;9.73;67.34;98055.88;10484577;28;20047;-59
2023/10/28 00:28:18;;;;;;;6.07;1.83;;;;;;;9.71;67.49;98063.03;10502456;28;20047;-59
2023/10/28 00:33:20;;;;;;;3.83;1.90;;;;;;;9.74;67.61;98060.97;10484840;28;20044;-59
2023/10/28 00:38:22;;;;;;;2.70;1.80;;;;;;;9.87;67.56;98052.91;10502346;28;20040;-59
2023/10/28 00:43:24;;;;;;;4.22;1.85;;;;;;;9.97;67.42;98056.38;10486936;28;20410;-59
2023/10/28 00:48:28;;;;;;;3.58;1.88;;;;;;;10.01;67.26;98065.59;10486590;28;20044;-59
2023/10/28 00:53:31;;;;;;;3.88;1.83;;;;;;;10.03;67.15;98061.91;10505705;28;20071;-59
2023/10/28 00:58:34;;;;;;;3.28;2.13;;;;;;;10.05;67.22;98053.91;10484430;28;20471;-59
2023/10/28 01:03:36;;;;;;;3.50;2.10;;;;;;;10.07;67.30;98054.63;10505398;28;20248;-59
2023/10/28 01:08:39;;;;;;;5.00;1.73;;;;;;;10.03;67.10;98053.22;10485646;28;20090;-59
2023/10/28 01:13:41;;;;;;;3.67;2.00;;;;;;;10.02;67.32;98054.19;10480588;28;20511;-59
2023/10/28 01:18:44;;;;;;;3.45;2.33;;;;;;;10.00;67.65;98056.09;10481749;28;20344;-59
2023/10/28 01:23:46;;;;;;;4.20;1.98;;;;;;;9.93;67.75;98041.94;10502169;28;20132;-59
2023/10/28 01:28:48;;;;;;;4.60;2.00;;;;;;;10.04;67.74;98039.19;10504647;28;20056;-59
2023/10/28 01:33:50;;;;;;;6.55;1.85;;;;;;;10.09;67.57;98045.69;10491476;28;20135;-59
2023/10/28 01:38:52;;;;;;;3.40;1.92;;;;;;;10.04;67.43;98042.63;10482881;28;20056;-59
2023/10/28 01:43:54;;;;;;;4.47;1.35;;;;;;;9.65;68.01;98052.09;10492219;28;20083;-59
2023/10/28 01:48:56;;;;;;;3.00;1.60;;;;;;;9.76;68.45;98061.66;10506112;28;20066;-59
2023/10/28 01:53:58;;;;;;;6.93;2.20;;;;;;;9.87;68.26;98060.75;10508176;28;20504;-59
2023/10/28 01:59:01;;;;;;;5.07;1.92;;;;;;;9.92;68.16;98061.16;10507920;28;20036;-59
2023/10/28 02:04:06;;;;;;;4.85;2.05;;;;;;;10.02;67.98;98064.63;10497228;28;20044;-59
2023/10/28 02:09:08;;;;;;;10.40;2.80;;;;;;;10.02;67.97;98059.41;10514510;28;20348;-59
2023/10/28 02:14:11;;;;;;;4.40;1.98;;;;;;;10.05;68.03;98067.81;10514532;28;20409;-59
2023/10/28 02:19:14;;;;;;;2.30;1.58;;;;;;;9.98;68.47;98066.69;10490054;28;20472;-59
2023/10/28 02:24:19;;;;;;;2.67;0.85;;;;;;;9.91;69.27;98069.97;10496656;28;20052;-59
2023/10/28 02:29:22;;;;;;;0.70;0.70;;;;;;;10.08;69.06;98077.16;10496682;28;20455;-59
2023/10/28 02:34:26;;;;;;;1.00;0.40;;;;;;;10.14;68.84;98076.63;10514553;28;20048;-59
2023/10/28 02:39:30;;;;;;;0.60;0.60;;;;;;;10.25;68.61;98071.28;10512686;28;20047;-59
2023/10/28 02:44:33;;;;;;;0.45;0.45;;;;;;;10.26;68.47;98084.22;10517000;28;20052;-59
2023/10/28 02:49:37;;;;;;;1.33;0.70;;;;;;;10.30;68.54;98084.75;10514895;28;20056;-59
2023/10/28 02:54:39;;;;;;;0.52;0.50;;;;;;;10.30;68.49;98090.81;10494251;28;20181;-59
2023/10/28 02:59:41;;;;;;;2.33;0.50;;;;;;;10.31;67.98;98092.47;10513880;28;20424;-59
2023/10/28 03:04:43;;;;;;;0.20;0.20;;;;;;;10.39;68.12;98100.47;10507354;28;20055;-59
2023/10/28 03:09:45;;;;;;;1.45;0.30;;;;;;;10.42;67.83;98097.56;10485889;28;20052;-59
2023/10/28 03:14:47;;;;;;;0.40;0.40;;;;;;;10.34;67.83;98107.88;10506641;28;20040;-59
2023/10/28 03:19:51;;;;;;;0.30;0.30;;;;;;;10.33;67.82;98105.41;10505148;28;20393;-59
2023/10/28 03:24:53;;;;;;;0.70;0.30;;;;;;;10.26;67.75;98117.34;10472731;28;20685;-60
2023/10/28 03:29:55;;;;;;;0.30;0.30;;;;;;;10.11;67.75;98127.34;10503676;28;20411;-59
2023/10/28 03:34:58;;;;;;;0.30;0.30;;;;;;;10.01;67.83;98123.03;10504635;28;20063;-59
2023/10/28 03:40:02;;;;;;;0.65;0.55;;;;;;;9.95;67.67;98118.34;10506122;28;20511;-59
2023/10/28 03:45:08;;;;;;;1.02;0.38;;;;;;;9.94;67.84;98127.13;10506439;28;20048;-59
2023/10/28 03:50:10;;;;;;;0.40;0.40;;;;;;;9.98;67.51;98129.34;10504972;28;20064;-59
2023/10/28 03:55:12;;;;;;;1.42;0.40;;;;;;;10.04;67.50;98134.06;10487302;28;20223;-59
2023/10/28 04:00:15;;;;;;;1.05;0.55;;;;;;;10.12;67.14;98141.22;10505518;28;20072;-59
2023/10/28 04:05:18;;;;;;;1.88;0.90;;;;;;;10.21;66.97;98140.44;10487869;28;20044;-59
2023/10/28 04:10:20;;;;;;;1.58;0.63;;;;;;;10.17;66.75;98128.59;10502613;28;20044;-60
2023/10/28 04:15:22;;;;;;;0.30;0.30;;;;;;;10.03;66.75;98134.19;10518731;28;20051;-59
2023/10/28 04:20:24;;;;;;;0.52;0.30;;;;;;;9.90;66.96;98141.41;10485079;28;20443;-59
2023/10/28 04:25:27;;;;;;;0.65;0.40;;;;;;;9.80;67.25;98141.38;10506402;28;20053;-59
2023/10/28 04:30:30;;;;;;;0.75;0.60;;;;;;;9.75;67.43;98151.34;10503607;28;20721;-59
2023/10/28 04:35:32;;;;;;;0.40;0.40;;;;;;;9.90;67.35;98139.63;10505371;28;20048;-59
2023/10/28 04:40:35;;;;;;;3.05;1.05;;;;;;;10.04;67.30;98136.66;10504894;28;20046;-60
2023/10/28 04:45:43;;;;;;;1.60;0.47;;;;;;;10.15;66.64;98141.81;10505627;28;20036;-59
2023/10/28 04:50:45;;;;;;;0.50;0.50;;;;;;;10.20;66.62;98131.78;10489229;28;20508;-59
2023/10/28 04:55:47;;;;;;;3.22;0.80;;;;;;;10.27;66.40;98134.69;10499850;28;20420;-59
2023/10/28 05:00:50;;;;;;;2.17;0.68;;;;;;;10.37;66.53;98128.53;10505395;28;20550;-59
2023/10/28 05:05:52;;;;;;;1.17;0.80;;;;;;;10.36;66.34;98124.25;10489208;28;20052;-59
2023/10/28 05:10:54;;;;;;;0.50;0.50;;;;;;;10.25;66.47;98139.22;10510516;28;20055;-59
2023/10/28 05:15:56;;;;;;;0.38;0.38;;;;;;;10.26;66.72;98130.41;10508287;28;20043;-59
2023/10/28 05:20:58;;;;;;;1.42;0.50;;;;;;;10.34;66.52;98134.00;10525489;27;20052;-59
2023/10/28 05:26:00;;;;;;;0.95;0.60;;;;;;;10.41;66.77;98131.69;10510379;28;20452;-59
2023/10/28 05:31:03;;;;;;;2.90;0.50;;;;;;;10.42;66.63;98135.94;10512877;28;20044;-59
2023/10/28 05:36:06;;;;;;;0.80;0.80;;;;;;;10.44;66.46;98141.84;10509649;28;20048;-59
2023/10/28 05:41:09;;;;;;;0.55;0.55;;;;;;;10.42;66.57;98135.94;10512178;28;20408;-59
2023/10/28 05:46:13;;;;;;;2.15;0.70;;;;;;;10.29;66.58;98135.38;10510487;28;20485;-59
2023/10/28 05:51:16;;;;;;;0.85;0.60;;;;;;;10.10;67.25;98137.91;10509034;28;20043;-59
2023/10/28 05:56:18;;;;;;;1.13;0.80;;;;;;;10.11;67.33;98143.03;10511155;28;20047;-59
2023/10/28 06:01:20;;;;;;;0.95;0.60;;;;;;;9.98;67.42;98147.63;10509465;28;20040;-59
2023/10/28 06:06:22;;;;;;;4.68;1.20;;;;;;;9.93;67.34;98147.19;10511738;28;20032;-60
2023/10/28 06:11:27;;;;;;;2.17;0.77;;;;;;;9.74;67.45;98141.88;10490658;28;20044;-59
2023/10/28 06:16:29;;;;;;;1.58;0.93;;;;;;;9.79;67.78;98149.34;10508995;28;20404;-59
2023/10/28 06:21:32;;;;;;;1.15;0.90;;;;;;;9.69;68.07;98156.28;10509539;28;20097;-59
2023/10/28 06:26:34;;;;;;;1.42;0.93;;;;;;;9.58;68.26;98170.22;10520643;28;20044;-59
2023/10/28 06:31:38;;;;;;;3.78;1.00;;;;;;;9.74;68.09;98173.22;10510605;28;20467;-59
2023/10/28 06:36:40;;;;;;;3.78;1.13;;;;;;;9.79;67.91;98183.28;10510992;28;20769;-60
2023/10/28 06:41:42;;;;;;;6.63;1.52;;;;;;;9.85;68.03;98178.34;10492737;28;20269;-59
2023/10/28 06:46:44;;;;;;;1.27;0.95;;;;;;;10.01;67.95;98188.34;10509913;28;20044;-59
2023/10/28 06:51:46;;;;;;;2.83;1.30;;;;;;;10.13;67.59;98195.97;10509455;28;20158;-59
2023/10/28 06:56:48;;;;;;;4.65;1.30;;;;;;;10.06;67.88;98194.81;10508081;28;20051;-59
2023/10/28 07:01:50;;;;;;;2.38;1.08;;;;;;;10.16;67.78;98200.91;10491115;28;20403;-59
2023/10/28 07:06:52;;;;;;;4.78;1.00;;;;;;;10.11;67.97;98197.03;10490949;28;20325;-59
2023/10/28 07:11:54;;;;;;;1.08;0.80;;;;;;;10.29;68.03;98211.97;10509902;28;20048;-59
2023/10/28 07:16:56;;;;;;;1.95;1.30;;;;;;;10.25;67.93;98223.66;10507975;28;20056;-59
2023/10/28 07:21:58;;;;;;;0.77;0.77;;;;;;;10.34;67.70;98219.41;10505653;28;20050;-60
2023/10/28 07:27:04;;;;;;;1.15;0.90;;;;;;;10.61;67.55;98224.88;10504807;28;20048;-60
2023/10/28 07:32:06;;;;;;;2.03;1.17;;;;;;;10.92;67.09;98226.47;10505387;28;20513;-60
2023/10/28 07:37:08;;;;;;;6.97;2.25;;;;;;;11.17;66.64;98220.75;10507923;28;20063;-59
2023/10/28 07:42:10;;;;;;;2.53;1.27;;;;;;;11.20;66.94;98230.94;10504494;28;20048;-59
2023/10/28 07:47:12;;;;;;;2.30;1.35;;;;;;;11.19;67.02;98229.28;10506949;28;20059;-61
2023/10/28 07:52:15;;;;;;;5.00;2.38;;;;;;;11.37;66.99;98236.47;10500342;28;20055;-60
2023/10/28 07:57:17;;;;;;;4.03;1.83;;;;;;;11.58;66.73;98245.00;10483898;28;20219;-61
2023/10/28 08:02:19;;;;;;;5.10;1.92;;;;;;;11.58;66.62;98251.06;10506140;28;20055;-61
2023/10/28 08:07:21;;;;;;;11.68;1.83;;;;;;;11.70;66.74;98257.00;10506421;28;20051;-61
2023/10/28 08:12:25;;;;;;;2.67;1.65;;;;;;;11.79;67.03;98248.28;10505802;28;20052;-61
2023/10/28 08:17:27;;;;;;;5.00;1.40;;;;;;;11.86;66.41;98244.16;10504576;28;20046;-61
2023/10/28 08:22:30;;;;;;;2.28;1.10;;;;;;;11.87;66.61;98245.78;10505152;28;20480;-61
2023/10/28 08:27:34;;;;;;;0.95;0.90;;;;;;;12.04;66.03;98243.28;10501516;28;20808;-61
2023/10/28 08:32:38;;;;;;;1.48;1.33;;;;;;;12.16;65.81;98243.94;10506426;28;20051;-61
2023/10/28 08:37:40;;;;;;;2.88;1.10;;;;;;;12.32;65.67;98244.19;10512890;28;20046;-61
2023/10/28 08:42:43;;;;;;;3.47;1.08;;;;;;;12.11;65.32;98254.84;10512774;28;20075;-62
2023/10/28 08:47:48;;;;;;;0.95;0.90;;;;;;;12.14;65.29;98261.59;10515133;28;20538;-62
2023/10/28 08:52:55;;;;;;;2.03;0.77;;;;;;;12.12;65.41;98261.75;10496335;28;20453;-62
2023/10/28 08:57:57;;;;;;;1.77;1.08;;;;;;;12.17;65.39;98277.06;10495449;28;20612;-61
2023/10/28 09:03:01;;;;;;;1.95;1.08;;;;;;;12.28;64.73;98276.91;10514214;28;20054;-62
2023/10/28 09:08:03;;;;;;;1.48;1.20;;;;;;;12.40;64.65;98286.25;10514364;28;20060;-61
2023/10/28 09:13:08;;;;;;;1.80;1.10;;;;;;;12.47;64.66;98284.72;10511320;28;20047;-61
2023/10/28 09:18:10;;;;;;;0.70;0.70;;;;;;;12.50;64.28;98281.81;10510680;28;20059;-61
2023/10/28 09:23:13;;;;;;;1.55;1.05;;;;;;;12.46;63.66;98296.16;10512076;28;20044;-62
2023/10/28 09:28:16;;;;;;;3.35;0.80;;;;;;;12.36;64.11;98292.75;10492055;28;20054;-61
2023/10/28 09:33:19;;;;;;;1.98;1.20;;;;;;;12.53;63.95;98294.63;10508521;28;20073;-61
2023/10/28 09:38:22;;;;;;;2.45;1.00;;;;;;;12.42;63.53;98291.34;10509987;28;20040;-61
2023/10/28 09:43:27;;;;;;;2.20;1.10;;;;;;;12.82;63.08;98297.94;10510796;28;20150;-62
2023/10/28 09:48:32;;;;;;;3.45;1.25;;;;;;;13.09;62.47;98310.25;10488989;28;20043;-61
2023/10/28 09:53:37;;;;;;;5.97;2.50;;;;;;;13.18;62.63;98298.06;10482737;28;20047;-61
2023/10/28 09:58:51;;;;;;;6.80;2.25;;;;;;;13.38;61.80;98300.41;10510242;28;20387;-61
2023/10/28 10:04:04;;;;;;;7.00;1.90;;;;;;;13.38;61.74;98304.81;10508957;28;20059;-61
2023/10/28 10:09:12;;;;;;;3.65;1.20;;;;;;;12.98;62.36;98307.00;10511535;28;20051;-62
2023/10/28 10:14:17;;;;;;;5.93;1.70;;;;;;;13.18;62.43;98303.31;10508019;28;20052;-62
2023/10/28 10:19:24;;;;;;;3.42;1.48;;;;;;;13.31;61.79;98312.47;10492409;28;20063;-61
2023/10/28 10:24:26;;;;;;;1.65;0.93;;;;;;;13.40;61.72;98308.13;10510046;28;20412;-62
2023/10/28 10:30:02;;;;;;;1.13;0.93;;;;;;;13.50;60.54;98308.91;10505479;28;20047;-62
2023/10/28 10:35:12;;;;;;;2.20;1.08;;;;;;;13.71;60.40;98299.78;10507463;28;20044;-62
2023/10/28 10:40:14;;;;;;;5.47;1.38;;;;;;;13.89;60.47;98302.41;10488980;28;20684;-62
2023/10/28 10:45:18;;;;;;;2.30;1.13;;;;;;;14.03;60.30;98288.72;10508760;28;20055;-61
2023/10/28 10:50:20;;;;;;;4.60;1.40;;;;;;;14.14;59.80;98285.84;10508081;28;20058;-61
2023/10/28 10:55:26;;;;;;;10.27;1.70;;;;;;;14.14;59.89;98299.00;10509565;28;20078;-62
2023/10/28 11:00:28;;;;;;;4.20;1.52;;;;;;;14.29;59.33;98304.50;10504364;28;20410;-61
2023/10/28 11:05:30;;;;;;;2.47;1.30;;;;;;;14.43;59.46;98299.50;10508522;28;20159;-62
2023/10/28 11:10:32;;;;;;;4.32;1.40;;;;;;;14.40;58.52;98305.06;10507835;28;20040;-61
2023/10/28 11:15:35;;;;;;;3.58;1.60;;;;;;;14.47;58.46;98295.56;10507917;28;20479;-61
2023/10/28 11:20:37;;;;;;;2.83;1.30;;;;;;;14.64;58.14;98287.81;10483494;28;20044;-61
2023/10/28 11:25:39;;;;;;;2.45;1.20;;;;;;;14.81;58.07;98286.91;10507020;28;20741;-61
2023/10/28 11:31:01;;;;;;;3.72;1.50;;;;;;;14.98;55.97;98278.09;10505445;28;20118;-61
2023/10/28 11:36:04;;;;;;;6.88;1.27;;;;;;;15.14;57.27;98291.31;10505234;28;20522;-61
2023/10/28 11:41:07;;;;;;;3.42;1.80;;;;;;;15.41;55.85;98280.50;10503706;28;20036;-61
2023/10/28 11:46:09;;;;;;;3.78;1.40;;;;;;;15.40;56.51;98278.88;10502875;28;20449;-61
2023/10/28 11:51:15;;;;;;;4.65;1.40;;;;;;;15.42;56.35;98276.91;10481465;28;20047;-61
2023/10/28 11:56:19;;;;;;;3.15;1.45;;;;;;;15.57;55.96;98274.50;10505387;28;20075;-61
2023/10/28 12:01:21;;;;;;;1.20;0.82;;;;;;;15.15;56.27;98279.78;10485830;28;20517;-61
2023/10/28 12:06:24;;;;;;;0.85;0.75;;;;;;;14.31;57.77;98281.50;10482632;28;20070;-61
2023/10/28 12:11:31;;;;;;;4.65;1.00;;;;;;;14.29;58.61;98283.44;10506419;28;20040;-61
2023/10/28 12:16:38;;;;;;;1.08;0.80;;;;;;;14.11;58.66;98295.81;10503611;28;20044;-61
2023/10/28 12:21:42;;;;;;;1.65;0.70;;;;;;;14.16;58.84;98297.03;10503010;28;20048;-61
2023/10/28 12:26:44;;;;;;;1.05;0.80;;;;;;;14.08;58.93;98290.88;10499322;28;20058;-61
2023/10/28 12:31:46;;;;;;;1.77;0.85;;;;;;;14.06;59.16;98301.56;10500278;28;20864;-61
2023/10/28 12:36:48;;;;;;;4.60;1.25;;;;;;;14.09;58.57;98290.72;10496706;28;20549;-61
2023/10/28 12:41:50;;;;;;;2.53;1.10;;;;;;;14.41;58.72;98295.41;10484249;28;20051;-61
2023/10/28 12:46:52;;;;;;;4.55;1.10;;;;;;;14.49;58.62;98298.91;10501996;28;20126;-61
2023/10/28 12:51:56;;;;;;;3.50;1.20;;;;;;;14.59;58.54;98302.25;10503688;28;20319;-61
2023/10/28 12:56:58;;;;;;;7.10;1.33;;;;;;;14.75;57.91;98301.53;10501585;28;20051;-61
2023/10/28 13:02:03;;;;;;;2.30;1.35;;;;;;;14.72;57.99;98298.38;10501457;28;20086;-61
2023/10/28 13:07:04;;;;;;;6.10;1.27;;;;;;;14.69;58.45;98307.41;10485400;28;20155;-61
2023/10/28 13:12:07;;;;;;;2.67;0.77;;;;;;;14.71;58.49;98308.09;10497493;28;20563;-61
2023/10/28 13:17:09;;;;;;;1.08;0.90;;;;;;;14.33;58.52;98317.19;10504502;28;20051;-61
2023/10/28 13:22:11;;;;;;;2.67;0.80;;;;;;;14.02;59.07;98320.41;10507557;28;20048;-61
2023/10/28 13:27:13;;;;;;;3.88;1.10;;;;;;;13.75;59.88;98303.75;10513573;28;20295;-61
2023/10/28 13:32:15;;;;;;;0.95;0.60;;;;;;;14.03;60.04;98311.53;10493931;28;20066;-61
2023/10/28 13:37:17;;;;;;;2.97;1.23;;;;;;;13.87;59.97;98309.59;10509511;28;20036;-61
2023/10/28 13:42:19;;;;;;;6.20;1.23;;;;;;;14.12;59.92;98310.63;10512825;28;20055;-61
2023/10/28 13:47:20;;;;;;;1.83;0.93;;;;;;;14.25;59.19;98306.59;10509125;28;20040;-61
2023/10/28 13:52:22;;;;;;;4.22;1.38;;;;;;;14.24;59.07;98319.91;10509520;28;20407;-61
2023/10/28 13:57:24;;;;;;;3.72;1.10;;;;;;;14.17;59.47;98318.88;10513255;28;20048;-61
2023/10/28 14:02:26;;;;;;;5.00;1.73;;;;;;;13.93;59.65;98316.06;10473544;28;20047;-61
2023/10/28 14:07:28;;;;;;;3.28;0.68;;;;;;;13.83;59.95;98310.06;10492426;28;20469;-61
2023/10/28 14:12:31;;;;;;;3.90;0.85;;;;;;;13.81;59.74;98312.84;10509372;28;20736;-61
2023/10/28 14:17:34;;;;;;;5.53;1.50;;;;;;;13.93;59.56;98302.91;10511024;28;20408;-61
2023/10/28 14:22:39;;;;;;;1.90;0.90;;;;;;;13.84;59.93;98303.84;10510451;28;20090;-61
2023/10/28 14:27:44;;;;;;;1.75;1.08;;;;;;;13.74;60.30;98307.34;10509998;28;20504;-61
2023/10/28 14:32:46;;;;;;;1.55;0.88;;;;;;;13.68;60.25;98313.22;10509464;28;20048;-61
2023/10/28 14:37:48;;;;;;;2.00;1.33;;;;;;;13.54;60.71;98326.03;10511463;28;20070;-61
2023/10/28 14:42:50;;;;;;;2.28;1.17;;;;;;;13.59;60.53;98323.81;10490557;28;20315;-60
2023/10/28 14:47:52;;;;;;;5.28;1.05;;;;;;;13.55;60.45;98322.44;10508362;28;20066;-61
2023/10/28 14:52:54;;;;;;;4.63;1.15;;;;;;;13.52;60.56;98318.31;10509780;28;20059;-61
2023/10/28 14:57:57;;;;;;;2.13;0.80;;;;;;;13.37;60.47;98317.13;10521990;28;20040;-61
2023/10/28 15:03:16;;;;;;;1.63;0.90;;;;;;;13.29;61.34;98318.88;10503537;28;20055;-61
2023/10/28 15:08:21;;;;;;;1.50;0.90;;;;;;;13.12;61.04;98323.09;10507149;28;20047;-61
2023/10/28 15:13:25;;;;;;;5.15;1.73;;;;;;;13.32;61.13;98318.53;10507275;28;20040;-61
2023/10/28 15:18:27;;;;;;;2.10;1.00;;;;;;;13.32;60.74;98314.13;10509036;28;20051;-61
2023/10/28 15:23:30;;;;;;;2.38;1.10;;;;;;;13.22;60.88;98308.13;10506769;28;20330;-61
2023/10/28 15:28:32;;;;;;;2.45;1.20;;;;;;;13.19;60.60;98311.03;10507549;28;20104;-61
2023/10/28 15:33:33;;;;;;;3.65;1.90;;;;;;;13.20;60.71;98320.56;10489899;28;20040;-61
2023/10/28 15:38:36;;;;;;;1.48;1.15;;;;;;;13.10;60.71;98332.09;10507781;28;20047;-61
2023/10/28 15:43:41;;;;;;;1.08;0.90;;;;;;;13.07;60.83;98321.88;10507119;28;20044;-61
2023/10/28 15:48:44;;;;;;;3.80;1.92;;;;;;;13.12;60.90;98323.09;10509529;28;20435;-61
2023/10/28 15:53:46;;;;;;;2.38;1.40;;;;;;;13.13;60.90;98319.47;10489014;28;20048;-61
2023/10/28 15:58:51;;;;;;;1.60;1.00;;;;;;;13.07;61.05;98332.38;10508342;28;20051;-61
2023/10/28 16:03:53;;;;;;;1.50;1.00;;;;;;;13.08;61.17;98340.09;10471607;28;20101;-61
2023/10/28 16:08:55;;;;;;;4.60;1.20;;;;;;;13.08;61.23;98331.41;10506379;28;20044;-61
2023/10/28 16:13:57;;;;;;;2.20;1.10;;;;;;;13.00;61.47;98331.31;10471740;28;20040;-61
2023/10/28 16:19:01;;;;;;;1.05;1.00;;;;;;;12.95;61.49;98332.56;10488016;28;20063;-61
2023/10/28 16:24:03;;;;;;;2.33;1.30;;;;;;;12.86;61.98;98327.38;10502589;28;20044;-61
2023/10/28 16:29:05;;;;;;;7.15;3.20;;;;;;;12.87;62.12;98323.75;10498590;28;20044;-61
2023/10/28 16:34:08;;;;;;;3.33;1.40;;;;;;;12.84;62.11;98317.00;10507587;28;20062;-61
2023/10/28 16:39:10;;;;;;;2.13;1.08;;;;;;;12.92;62.15;98324.16;10507619;28;20048;-61
2023/10/28 16:44:13;;;;;;;2.38;0.90;;;;;;;12.95;62.05;98321.25;10509302;28;20063;-61
2023/10/28 16:49:16;;;;;;;0.60;0.60;;;;;;;12.90;62.07;98320.88;10508728;28;20055;-61
2023/10/28 16:54:18;;;;;;;4.80;1.15;;;;;;;12.96;62.44;98331.56;10490586;28;20039;-61
2023/10/28 16:59:19;;;;;;;1.17;0.88;;;;;;;12.98;62.31;98333.25;10516575;28;20044;-61
2023/10/28 17:04:21;;;;;;;2.50;1.40;;;;;;;12.90;62.39;98332.16;10517864;28;20767;-61
2023/10/28 17:09:24;;;;;;;2.08;1.02;;;;;;;12.85;62.30;98337.03;10515730;28;20131;-61
2023/10/28 17:14:26;;;;;;;4.07;1.20;;;;;;;12.88;62.65;98349.84;10532688;27;20048;-61
2023/10/28 17:19:28;;;;;;;2.70;1.48;;;;;;;12.86;62.91;98366.72;10516468;28;20056;-61
2023/10/28 17:24:30;;;;;;;2.47;1.30;;;;;;;12.75;62.72;98353.78;10506427;28;20498;-61
2023/10/28 17:29:32;;;;;;;3.50;1.50;;;;;;;12.77;62.70;98347.41;10514846;28;20526;-60
2023/10/28 17:34:34;;;;;;;1.40;1.00;;;;;;;12.80;62.87;98341.88;10515630;28;20052;-59
2023/10/28 17:39:36;;;;;;;2.05;1.05;;;;;;;12.75;62.40;98341.50;10486328;28;20386;-59
2023/10/28 17:44:38;;;;;;;1.98;1.10;;;;;;;12.71;62.72;98353.25;10507455;28;20138;-59
2023/10/28 17:49:41;;;;;;;4.32;1.60;;;;;;;12.71;62.64;98355.88;10515187;28;20032;-59
2023/10/28 17:54:43;;;;;;;1.27;0.90;;;;;;;12.71;62.85;98355.88;10513150;28;20153;-59
2023/10/28 17:59:45;;;;;;;1.95;1.20;;;;;;;12.71;62.44;98374.22;10513847;28;20075;-59
2023/10/28 18:04:47;;;;;;;1.65;1.15;;;;;;;12.70;62.70;98371.75;10513240;28;20522;-60
2023/10/28 18:09:49;;;;;;;2.88;1.40;;;;;;;12.75;62.31;98370.34;10511957;28;20047;-59
2023/10/28 18:14:51;;;;;;;3.10;1.02;;;;;;;12.80;62.34;98362.84;10513590;28;20040;-59
2023/10/28 18:19:56;;;;;;;2.22;1.17;;;;;;;12.76;62.54;98358.06;10512597;28;20492;-59
2023/10/28 18:24:58;;;;;;;3.53;1.20;;;;;;;12.76;62.39;98353.63;10512683;28;20193;-59
2023/10/28 18:30:00;;;;;;;1.17;0.90;;;;;;;12.85;62.18;98352.78;10510656;28;20484;-60
2023/10/28 18:35:03;;;;;;;2.67;1.48;;;;;;;12.89;62.10;98350.69;10443025;28;20048;-60
2023/10/28 18:40:06;;;;;;;3.00;1.20;;;;;;;12.86;62.08;98350.97;10497314;28;20044;-60
2023/10/28 18:45:09;;;;;;;2.00;1.38;;;;;;;12.87;61.88;98357.88;10506897;28;20040;-60
2023/10/28 18:50:11;;;;;;;3.42;1.58;;;;;;;12.80;62.00;98341.06;10508972;28;20046;-60
2023/10/28 18:55:14;;;;;;;2.42;1.00;;;;;;;12.77;62.49;98349.22;10497593;28;20446;-60
2023/10/28 19:00:16;;;;;;;2.58;1.52;;;;;;;12.71;63.02;98341.91;10507933;28;20044;-60
2023/10/28 19:05:20;;;;;;;2.42;1.25;;;;;;;12.64;63.28;98339.03;10494279;28;20040;-60
2023/10/28 19:10:22;;;;;;;4.03;1.10;;;;;;;12.54;63.71;98330.38;10509042;28;20310;-60
2023/10/28 19:15:24;;;;;;;4.65;1.30;;;;;;;12.42;64.26;98328.88;10490631;28;20046;-59
2023/10/28 19:20:26;;;;;;;5.68;1.45;;;;;;;12.37;64.11;98328.50;10499932;28;20056;-60
2023/10/28 19:25:28;;;;;;;1.88;1.20;;;;;;;12.34;64.89;98322.69;10503055;28;20040;-60
2023/10/28 19:30:30;;;;;;;5.60;2.17;;;;;;;12.33;64.67;98332.38;10509475;28;20047;-60
2023/10/28 19:35:32;;;;;;;3.13;1.48;;;;;;;12.37;64.78;98328.50;10505452;28;20075;-60
2023/10/28 19:40:34;;;;;;;2.88;1.65;;;;;;;12.39;64.75;98321.31;10503513;28;20393;-60
2023/10/28 19:45:37;;;;;;;2.80;1.13;;;;;;;12.43;64.64;98312.19;10489265;28;20447;-60
2023/10/28 19:50:38;;;;;;;4.47;1.58;;;;;;;12.43;64.73;98309.56;10505713;28;20133;-60
2023/10/28 19:55:40;;;;;;;4.07;2.00;;;;;;;12.25;65.21;98306.00;10523002;27;20457;-60
2023/10/28 20:00:42;;;;;;;3.97;1.95;;;;;;;12.12;65.80;98303.69;10502925;28;20059;-60
2023/10/28 20:05:44;;;;;;;4.43;1.60;;;;;;;12.01;66.04;98300.38;10505233;28;20056;-60
2023/10/28 20:10:49;;;;;;;3.13;1.38;;;;;;;12.00;66.11;98298.72;10502788;28;20048;-59
2023/10/28 20:15:51;;;;;;;2.65;1.30;;;;;;;12.12;65.96;98298.44;10501062;28;20055;-59
2023/10/28 20:20:55;;;;;;;2.13;1.13;;;;;;;12.17;65.89;98290.16;10496529;28;20120;-60
2023/10/28 20:25:59;;;;;;;4.20;1.40;;;;;;;12.10;66.22;98287.28;10473409;28;20051;-60
2023/10/28 20:31:04;;;;;;;2.03;1.10;;;;;;;12.23;65.89;98291.38;10507156;28;20047;-60
2023/10/28 20:36:06;;;;;;;3.03;1.38;;;;;;;12.36;65.89;98294.53;10502580;28;20052;-59
2023/10/28 20:41:08;;;;;;;3.33;1.50;;;;;;;12.45;65.58;98293.69;10503493;28;20050;-59
2023/10/28 20:46:12;;;;;;;2.58;1.40;;;;;;;12.45;65.60;98298.94;10505100;28;20086;-60
2023/10/28 20:51:14;;;;;;;3.72;1.20;;;;;;;12.44;65.56;98292.84;10505032;28;21212;-59
2023/10/28 20:56:16;;;;;;;2.10;1.23;;;;;;;12.45;65.68;98294.53;10505313;28;20526;-60
2023/10/28 21:01:19;;;;;;;2.63;1.15;;;;;;;12.49;65.54;98289.81;10506672;28;20073;-60
2023/10/28 21:06:21;;;;;;;7.25;1.52;;;;;;;12.36;66.03;98291.91;10488964;28;20036;-59
2023/10/28 21:11:23;;;;;;;4.43;1.45;;;;;;;12.30;65.98;98292.47;10505506;28;20504;-60
2023/10/28 21:16:25;;;;;;;1.95;1.42;;;;;;;12.22;66.30;98293.16;10507084;28;20513;-59
2023/10/28 21:21:27;;;;;;;2.22;1.00;;;;;;;12.19;66.17;98288.22;10504805;28;20294;-60
2023/10/28 21:26:29;;;;;;;2.50;1.30;;;;;;;12.17;66.35;98290.16;10483214;28;20806;-59
2023/10/28 21:31:31;;;;;;;6.20;1.48;;;;;;;12.04;66.75;98294.88;10504794;28;20056;-60
2023/10/28 21:36:33;;;;;;;3.08;1.30;;;;;;;12.24;66.05;98283.38;10503841;28;20403;-59
2023/10/28 21:41:35;;;;;;;2.50;1.50;;;;;;;12.37;65.60;98283.94;10506020;28;20047;-59
2023/10/28 21:46:37;;;;;;;3.03;1.48;;;;;;;12.52;65.42;98281.66;10511389;28;20082;-59
2023/10/28 21:51:39;;;;;;;1.90;1.10;;;;;;;12.61;65.31;98283.41;10513680;28;20066;-59
2023/10/28 21:56:41;;;;;;;1.60;1.05;;;;;;;12.63;65.34;98279.69;10512641;28;20044;-59
2023/10/28 22:01:43;;;;;;;4.70;1.27;;;;;;;12.67;65.06;98267.09;10513497;28;20127;-59
2023/10/28 22:06:45;;;;;;;1.88;1.15;;;;;;;12.63;65.32;98268.38;10512730;28;20377;-59
2023/10/28 22:11:48;;;;;;;1.95;0.90;;;;;;;12.59;65.03;98259.97;10512948;28;20056;-59
2023/10/28 22:16:52;;;;;;;2.38;1.17;;;;;;;12.59;65.14;98243.41;10494635;28;20056;-59
2023/10/28 22:21:54;;;;;;;0.70;0.70;;;;;;;12.64;65.30;98235.94;10492843;28;20040;-59
2023/10/28 22:26:56;;;;;;;1.40;1.00;;;;;;;12.68;65.07;98226.81;10512030;28;20047;-59
2023/10/28 22:31:58;;;;;;;1.60;0.90;;;;;;;12.68;64.89;98218.94;10511866;28;20080;-59
2023/10/28 22:36:59;;;;;;;3.10;1.00;;;;;;;12.63;64.53;98222.00;10510343;28;20475;-60
2023/10/28 22:42:02;;;;;;;1.10;0.93;;;;;;;12.72;64.85;98223.72;10493720;28;20396;-59
2023/10/28 22:47:04;;;;;;;0.90;0.70;;;;;;;12.71;64.43;98216.84;10513123;28;20047;-59
2023/10/28 22:52:06;;;;;;;1.38;1.00;;;;;;;12.68;64.70;98205.81;10510621;28;20044;-60
2023/10/28 22:57:08;;;;;;;0.77;0.77;;;;;;;12.61;65.17;98202.97;10510397;28;20040;-59
2023/10/28 23:02:10;;;;;;;0.60;0.60;;;;;;;12.63;64.73;98193.16;10491070;28;20043;-59
2023/10/28 23:07:12;;;;;;;2.40;0.90;;;;;;;12.72;64.79;98183.56;10510594;28;20042;-59
2023/10/28 23:12:14;;;;;;;2.22;1.17;;;;;;;12.76;64.58;98177.88;10510518;28;20048;-59
2023/10/28 23:17:16;;;;;;;3.55;1.00;;;;;;;12.72;64.61;98186.19;10510763;28;20067;-59
2023/10/28 23:22:18;;;;;;;2.08;0.75;;;;;;;12.71;64.81;98190.63;10508409;28;20056;-59
2023/10/28 23:27:20;;;;;;;1.40;0.82;;;;;;;12.74;64.80;98173.75;10510163;28;20056;-59
2023/10/28 23:32:22;;;;;;;0.82;0.60;;;;;;;12.88;64.21;98184.56;10509203;28;21011;-60